createdAt,value
2017-10-23T00:02:12.563Z,17.62
2017-10-23T00:04:41.660Z,20.73
2017-10-23T00:07:11.864Z,16.77
2017-10-23T00:09:40.958Z,22.48
2017-10-23T00:12:10.112Z,20.17
2017-10-23T00:14:39.455Z,23.27
2017-10-23T00:17:08.638Z,23.67
2017-10-23T00:19:37.949Z,30.67
2017-10-23T00:22:07.613Z,28.92
2017-10-23T00:24:36.785Z,14.55
2017-10-23T00:27:05.888Z,17.45
2017-10-23T00:29:35.125Z,20.02
2017-10-23T00:32:04.322Z,19.12
2017-10-23T00:34:33.478Z,14.70
2017-10-23T00:37:03.091Z,19.40
2017-10-23T00:39:32.261Z,24.77
2017-10-23T00:42:01.465Z,25.00
2017-10-23T00:44:30.668Z,18.50
2017-10-23T00:46:59.887Z,18.58
2017-10-23T00:49:29.147Z,9.95
2017-10-23T00:51:58.377Z,24.98
2017-10-23T00:54:28.335Z,20.40
2017-10-23T00:56:57.548Z,13.88
2017-10-23T00:59:26.755Z,14.35
2017-10-23T01:01:55.861Z,15.25
2017-10-23T01:04:25.721Z,15.10
2017-10-23T01:06:55.110Z,20.83
2017-10-23T01:09:24.214Z,23.27
2017-10-23T01:11:53.331Z,11.23
2017-10-23T01:14:22.575Z,30.90
2017-10-23T01:16:51.689Z,13.93
2017-10-23T01:19:20.830Z,15.27
2017-10-23T01:21:50.773Z,13.50
2017-10-23T01:24:20.709Z,27.00
2017-10-23T01:26:49.925Z,19.15
2017-10-23T01:29:19.034Z,18.73
2017-10-23T01:31:48.154Z,25.73
2017-10-23T01:34:17.349Z,24.67
2017-10-23T01:36:47.388Z,17.62
2017-10-23T01:39:16.597Z,13.38
2017-10-23T01:41:45.905Z,18.17
2017-10-23T01:44:15.097Z,23.27
2017-10-23T01:46:45.006Z,22.57
2017-10-23T01:49:14.151Z,17.45
2017-10-23T01:51:44.081Z,17.17
2017-10-23T01:54:13.175Z,16.50
2017-10-23T01:56:43.116Z,18.73
2017-10-23T01:59:12.944Z,31.70
2017-10-23T02:01:42.242Z,16.98
2017-10-23T02:04:12.119Z,16.90
2017-10-23T02:06:41.288Z,18.77
2017-10-23T02:09:11.050Z,23.35
2017-10-23T02:11:40.232Z,24.98
2017-10-23T02:14:09.797Z,27.67
2017-10-23T02:16:38.949Z,27.30
2017-10-23T02:19:08.889Z,18.25
2017-10-23T02:21:38.401Z,26.85
2017-10-23T02:24:07.548Z,18.67
2017-10-23T02:26:36.651Z,24.77
2017-10-23T02:29:06.651Z,25.92
2017-10-23T02:31:35.901Z,23.98
2017-10-23T02:34:05.175Z,30.30
2017-10-23T02:36:34.367Z,21.17
2017-10-23T02:39:04.318Z,23.23
2017-10-23T02:41:33.512Z,22.55
2017-10-23T02:44:03.700Z,21.13
2017-10-23T02:46:33.629Z,33.40
2017-10-23T02:49:03.600Z,26.17
2017-10-23T02:51:33.545Z,24.23
2017-10-23T02:54:02.733Z,28.67
2017-10-23T02:56:32.695Z,28.20
2017-10-23T02:59:02.923Z,29.17
2017-10-23T03:01:32.126Z,27.33
2017-10-23T03:04:01.293Z,36.40
2017-10-23T03:06:31.674Z,24.33
2017-10-23T03:09:00.899Z,28.55
2017-10-23T03:11:30.075Z,29.58
2017-10-23T03:14:00.161Z,30.03
2017-10-23T03:16:29.360Z,34.37
2017-10-23T03:18:58.537Z,38.38
2017-10-23T03:21:29.147Z,33.75
2017-10-23T03:23:58.413Z,25.65
2017-10-23T03:26:27.531Z,35.80
2017-10-23T03:28:57.008Z,34.58
2017-10-23T03:31:26.991Z,34.70
2017-10-23T03:33:56.169Z,33.47
2017-10-23T03:36:25.433Z,37.20
2017-10-23T03:38:54.698Z,38.88
2017-10-23T03:41:23.834Z,53.47
2017-10-23T03:43:52.994Z,30.33
2017-10-23T03:46:23.241Z,28.87
2017-10-23T03:48:52.417Z,39.65
2017-10-23T03:51:22.714Z,33.80
2017-10-23T03:53:52.627Z,40.53
2017-10-23T03:56:22.069Z,28.65
2017-10-23T03:58:52.167Z,33.47
2017-10-23T04:01:21.586Z,33.72
2017-10-23T04:03:50.822Z,34.50
2017-10-23T04:06:21.119Z,31.40
2017-10-23T04:08:51.496Z,28.62
2017-10-23T04:11:21.765Z,37.60
2017-10-23T04:13:51.088Z,27.73
2017-10-23T04:16:20.845Z,36.23
2017-10-23T04:18:50.012Z,36.97
2017-10-23T04:21:19.129Z,31.90
2017-10-23T04:23:48.306Z,34.53
2017-10-23T04:26:17.586Z,30.17
2017-10-23T04:28:46.708Z,36.10
2017-10-23T04:31:15.907Z,42.90
2017-10-23T04:33:45.332Z,34.93
2017-10-23T04:36:15.645Z,37.03
2017-10-23T04:38:45.575Z,29.20
2017-10-23T04:41:15.874Z,31.40
2017-10-23T04:43:45.082Z,37.00
2017-10-23T04:46:14.249Z,28.23
2017-10-23T04:48:43.475Z,29.07
2017-10-23T04:51:12.792Z,26.70
2017-10-23T04:53:42.024Z,33.20
2017-10-23T04:56:11.999Z,26.80
2017-10-23T04:58:41.938Z,29.80
2017-10-23T05:01:11.456Z,32.42
2017-10-23T05:03:41.383Z,38.07
2017-10-23T05:06:10.598Z,37.07
2017-10-23T05:08:39.750Z,29.00
2017-10-23T05:11:09.189Z,23.93
2017-10-23T05:13:38.440Z,27.02
2017-10-23T05:16:08.364Z,29.35
2017-10-23T05:18:38.391Z,29.53
2017-10-23T05:21:07.605Z,27.20
2017-10-23T05:23:36.920Z,30.70
2017-10-23T05:26:07.617Z,24.63
2017-10-23T05:28:36.815Z,24.35
2017-10-23T05:31:06.067Z,22.00
2017-10-23T05:33:36.034Z,21.67
2017-10-23T05:36:05.311Z,20.83
2017-10-23T05:38:35.410Z,28.38
2017-10-23T05:41:04.835Z,19.47
2017-10-23T05:43:34.527Z,24.17
2017-10-23T05:46:03.959Z,22.63
2017-10-23T05:48:33.393Z,18.00
2017-10-23T05:51:02.752Z,28.02
2017-10-23T05:53:32.118Z,23.45
2017-10-23T05:56:01.908Z,32.38
2017-10-23T05:58:31.306Z,20.00
2017-10-23T06:01:00.600Z,27.57
2017-10-23T06:03:32.337Z,17.83
2017-10-23T06:06:01.616Z,19.50
2017-10-23T06:08:30.995Z,20.90
2017-10-23T06:11:01.012Z,25.77
2017-10-23T06:13:30.727Z,19.80
2017-10-23T06:16:00.186Z,15.33
2017-10-23T06:18:30.265Z,13.83
2017-10-23T06:21:00.572Z,15.73
2017-10-23T06:23:30.675Z,15.65
2017-10-23T06:26:00.392Z,18.08
2017-10-23T06:28:29.737Z,17.45
2017-10-23T06:30:58.945Z,21.43
2017-10-23T06:33:28.298Z,18.20
2017-10-23T06:35:58.281Z,20.03
2017-10-23T06:38:28.221Z,16.00
2017-10-23T06:40:57.729Z,20.33
2017-10-23T06:43:27.757Z,16.20
2017-10-23T06:45:56.902Z,18.93
2017-10-23T06:48:27.013Z,17.33
2017-10-23T06:50:57.175Z,21.10
2017-10-23T06:53:27.387Z,19.40
2017-10-23T06:55:57.312Z,18.93
2017-10-23T06:58:26.580Z,19.63
2017-10-23T07:00:56.874Z,19.33
2017-10-23T07:03:26.079Z,19.23
2017-10-23T07:05:56.217Z,22.53
2017-10-23T07:08:25.497Z,19.73
2017-10-23T07:10:54.718Z,22.67
2017-10-23T07:13:23.888Z,23.73
2017-10-23T07:15:54.214Z,28.93
2017-10-23T07:18:23.643Z,23.33
2017-10-23T07:20:53.903Z,24.27
2017-10-23T07:23:23.327Z,25.87
2017-10-23T07:25:52.527Z,23.93
2017-10-23T07:28:21.949Z,18.93
2017-10-23T07:30:51.636Z,21.27
2017-10-23T07:33:21.282Z,21.93
2017-10-23T07:35:50.429Z,19.03
2017-10-23T07:38:22.016Z,20.33
2017-10-23T07:40:52.153Z,22.07
2017-10-23T07:43:21.731Z,19.37
2017-10-23T07:45:51.083Z,24.57
2017-10-23T07:48:20.258Z,23.83
2017-10-23T07:50:49.422Z,24.53
2017-10-23T07:53:18.613Z,24.80
2017-10-23T07:55:47.798Z,29.00
2017-10-23T07:58:17.183Z,24.83
2017-10-23T08:00:46.358Z,24.93
2017-10-23T08:03:17.183Z,17.80
2017-10-23T08:05:46.979Z,24.87
2017-10-23T08:08:16.244Z,21.27
2017-10-23T08:10:46.956Z,24.97
2017-10-23T08:13:16.914Z,17.87
2017-10-23T08:15:46.475Z,20.47
2017-10-23T08:18:15.840Z,20.43
2017-10-23T08:20:47.295Z,24.53
2017-10-23T08:23:17.806Z,19.43
2017-10-23T08:25:47.921Z,18.40
2017-10-23T08:28:17.172Z,18.77
2017-10-23T08:30:46.462Z,16.13
2017-10-23T08:33:16.628Z,17.93
2017-10-23T08:35:47.608Z,17.50
2017-10-23T08:38:17.248Z,25.03
2017-10-23T08:40:46.551Z,22.60
2017-10-23T08:43:16.638Z,18.40
2017-10-23T08:45:46.871Z,25.97
2017-10-23T08:48:16.085Z,19.60
2017-10-23T08:50:45.870Z,17.27
2017-10-23T08:53:14.995Z,15.20
2017-10-23T08:55:44.240Z,18.17
2017-10-23T08:58:15.227Z,21.00
2017-10-23T09:00:45.143Z,26.00
2017-10-23T09:03:15.186Z,16.40
2017-10-23T09:05:44.270Z,11.33
2017-10-23T09:08:13.502Z,12.93
2017-10-23T09:10:43.763Z,10.47
2017-10-23T09:13:12.957Z,15.20
2017-10-23T09:15:44.703Z,10.40
2017-10-23T09:18:14.639Z,10.80
2017-10-23T09:20:45.294Z,10.00
2017-10-23T09:23:14.593Z,8.97
2017-10-23T09:25:44.446Z,14.30
2017-10-23T09:28:14.058Z,9.70
2017-10-23T09:30:43.182Z,8.10
2017-10-23T09:33:12.335Z,13.37
2017-10-23T09:35:41.726Z,19.37
2017-10-23T09:38:11.238Z,8.97
2017-10-23T09:40:40.402Z,9.90
2017-10-23T09:43:10.438Z,10.30
2017-10-23T09:45:39.830Z,8.10
2017-10-23T09:48:09.194Z,15.53
2017-10-23T09:50:38.493Z,8.00
2017-10-23T09:53:08.860Z,5.47
2017-10-23T09:55:38.016Z,3.83
2017-10-23T09:58:07.371Z,10.03
2017-10-23T10:00:36.955Z,8.23
2017-10-23T10:03:06.913Z,5.37
2017-10-23T10:05:36.956Z,5.00
2017-10-23T10:08:06.448Z,9.83
2017-10-23T10:10:35.653Z,4.20
2017-10-23T10:13:04.879Z,5.83
2017-10-23T10:15:34.192Z,8.40
2017-10-23T10:18:03.944Z,4.70
2017-10-23T10:20:33.370Z,6.03
2017-10-23T10:23:02.711Z,3.23
2017-10-23T10:25:31.997Z,5.90
2017-10-23T10:28:01.379Z,3.10
2017-10-23T10:30:31.923Z,2.60
2017-10-23T10:33:01.158Z,2.40
2017-10-23T10:35:31.337Z,2.33
2017-10-23T10:38:00.570Z,3.73
2017-10-23T10:40:30.701Z,2.33
2017-10-23T10:43:00.066Z,2.40
2017-10-23T10:45:29.798Z,3.87
2017-10-23T10:47:59.522Z,5.10
2017-10-23T10:50:29.502Z,2.00
2017-10-23T10:52:58.916Z,2.00
2017-10-23T10:55:29.044Z,2.10
2017-10-23T10:57:59.503Z,4.80
2017-10-23T11:00:29.607Z,2.50
2017-10-23T11:03:01.571Z,6.67
2017-10-23T11:05:31.712Z,3.20
2017-10-23T11:08:00.923Z,6.27
2017-10-23T11:10:30.321Z,4.47
2017-10-23T11:13:00.016Z,5.17
2017-10-23T11:15:32.095Z,2.50
2017-10-23T11:18:01.693Z,1.77
2017-10-23T11:20:31.115Z,5.50
2017-10-23T11:23:01.393Z,2.20
2017-10-23T11:25:30.747Z,2.63
2017-10-23T11:27:59.912Z,1.20
2017-10-23T11:30:30.059Z,1.60
2017-10-23T11:33:01.151Z,2.67
2017-10-23T11:35:30.514Z,1.50
2017-10-23T11:37:59.864Z,4.30
2017-10-23T11:40:32.382Z,2.53
2017-10-23T11:43:01.724Z,2.63
2017-10-23T11:45:32.108Z,1.70
2017-10-23T11:48:01.523Z,3.93
2017-10-23T11:50:31.602Z,4.03
2017-10-23T11:53:01.079Z,4.43
2017-10-23T11:55:32.425Z,7.27
2017-10-23T11:58:02.364Z,8.50
2017-10-23T12:00:31.670Z,8.27
2017-10-23T12:03:01.174Z,5.60
2017-10-23T12:05:30.357Z,4.97
2017-10-23T12:08:00.128Z,8.60
2017-10-23T12:10:30.405Z,9.50
2017-10-23T12:12:59.676Z,3.60
2017-10-23T12:15:28.925Z,9.13
2017-10-23T12:17:58.084Z,19.20
2017-10-23T12:20:27.859Z,3.67
2017-10-23T12:22:57.026Z,5.57
2017-10-23T12:25:27.663Z,7.97
2017-10-23T12:27:56.838Z,4.57
2017-10-23T12:30:27.441Z,2.70
2017-10-23T12:32:57.961Z,9.23
2017-10-23T12:35:27.057Z,16.03
2017-10-23T12:37:56.249Z,7.93
2017-10-23T12:40:27.329Z,8.03
2017-10-23T12:42:57.388Z,11.07
2017-10-23T12:45:27.948Z,6.03
2017-10-23T12:47:58.086Z,2.90
2017-10-23T12:50:30.350Z,1.63
2017-10-23T12:52:59.632Z,3.10
2017-10-23T12:55:30.153Z,3.83
2017-10-23T12:58:00.391Z,4.60
2017-10-23T13:00:30.366Z,3.83
2017-10-23T13:02:59.628Z,3.00
2017-10-23T13:05:30.694Z,6.30
2017-10-23T13:08:01.962Z,5.90
2017-10-23T13:10:32.941Z,3.77
2017-10-23T13:13:03.117Z,7.20
2017-10-23T13:15:32.423Z,5.50
2017-10-23T13:18:02.941Z,4.07
2017-10-23T13:20:34.524Z,9.30
2017-10-23T13:23:04.590Z,4.77
2017-10-23T13:25:33.767Z,7.90
2017-10-23T13:28:02.973Z,2.80
2017-10-23T13:30:33.213Z,3.43
2017-10-23T13:33:02.544Z,4.43
2017-10-23T13:35:31.767Z,5.83
2017-10-23T13:38:02.277Z,2.53
2017-10-23T13:40:32.327Z,1.73
2017-10-23T13:43:01.648Z,4.37
2017-10-23T13:45:31.345Z,1.30
2017-10-23T13:48:00.732Z,5.50
2017-10-23T13:50:29.891Z,2.70
2017-10-23T13:53:01.745Z,3.33
2017-10-23T13:55:30.885Z,3.50
2017-10-23T13:58:03.526Z,1.60
2017-10-23T14:00:33.838Z,1.93
2017-10-23T14:03:05.487Z,3.00
2017-10-23T14:05:34.610Z,2.50
2017-10-23T14:08:03.759Z,2.80
2017-10-23T14:10:33.011Z,2.40
2017-10-23T14:13:02.741Z,3.10
2017-10-23T14:15:32.095Z,2.27
2017-10-23T14:18:01.510Z,2.30
2017-10-23T14:20:30.936Z,4.60
2017-10-23T14:23:00.338Z,3.07
2017-10-23T14:25:31.260Z,3.47
2017-10-23T14:28:01.874Z,3.57
2017-10-23T14:30:31.262Z,4.23
2017-10-23T14:33:00.880Z,3.20
2017-10-23T14:35:30.140Z,3.33
2017-10-23T14:38:00.987Z,3.20
2017-10-23T14:40:32.181Z,3.40
2017-10-23T14:43:02.217Z,2.80
2017-10-23T14:45:31.440Z,2.90
2017-10-23T14:48:01.811Z,2.77
2017-10-23T14:50:31.154Z,10.33
2017-10-23T14:53:00.423Z,4.50
2017-10-23T14:55:29.983Z,5.40
2017-10-23T14:57:59.749Z,5.20
2017-10-23T15:00:29.914Z,5.07
2017-10-23T15:03:00.385Z,7.00
2017-10-23T15:05:29.692Z,9.07
2017-10-23T15:07:58.828Z,8.67
2017-10-23T15:10:27.960Z,8.37
2017-10-23T15:12:57.148Z,5.53
2017-10-23T15:15:26.258Z,5.20
2017-10-23T15:17:55.398Z,4.53
2017-10-23T15:20:25.259Z,4.50
2017-10-23T15:22:54.381Z,6.13
2017-10-23T15:25:23.664Z,5.93
2017-10-23T15:27:53.576Z,2.40
2017-10-23T15:30:23.490Z,2.80
2017-10-23T15:32:52.970Z,2.10
2017-10-23T15:35:22.116Z,3.07
2017-10-23T15:37:51.212Z,1.70
2017-10-23T15:40:23.130Z,1.80
2017-10-23T15:42:52.989Z,2.47
2017-10-23T15:45:24.070Z,2.00
2017-10-23T15:47:53.569Z,1.00
2017-10-23T15:50:22.649Z,3.93
2017-10-23T15:52:52.810Z,1.67
2017-10-23T15:55:22.002Z,1.77
2017-10-23T15:57:51.714Z,1.50
2017-10-23T16:00:21.622Z,2.13
2017-10-23T16:02:51.900Z,2.10
2017-10-23T16:05:21.625Z,1.57
2017-10-23T16:07:51.507Z,2.20
2017-10-23T16:10:22.444Z,1.87
2017-10-23T16:12:51.522Z,2.63
2017-10-23T16:15:22.299Z,2.43
2017-10-23T16:17:51.490Z,7.50
2017-10-23T16:20:20.606Z,1.73
2017-10-23T16:22:49.705Z,2.20
2017-10-23T16:25:20.012Z,2.57
2017-10-23T16:27:49.202Z,3.13
2017-10-23T16:30:19.714Z,3.37
2017-10-23T16:32:49.235Z,2.70
2017-10-23T16:35:19.115Z,2.67
2017-10-23T16:37:48.299Z,2.63
2017-10-23T16:40:17.805Z,1.93
2017-10-23T16:42:47.282Z,3.90
2017-10-23T16:45:17.209Z,5.60
2017-10-23T16:47:48.588Z,3.70
2017-10-23T16:50:18.974Z,4.30
2017-10-23T16:52:48.745Z,8.83
2017-10-23T16:55:20.425Z,3.20
2017-10-23T16:57:54.037Z,8.23
2017-10-23T17:00:24.654Z,5.17
2017-10-23T17:02:55.797Z,5.53
2017-10-23T17:05:25.955Z,6.70
2017-10-23T17:07:55.431Z,8.30
2017-10-23T17:10:25.960Z,6.03
2017-10-23T17:12:55.445Z,23.77
2017-10-23T17:15:24.577Z,6.60
2017-10-23T17:17:55.661Z,7.57
2017-10-23T17:20:29.263Z,7.17
2017-10-23T17:23:00.617Z,8.00
2017-10-23T17:25:30.215Z,11.60
2017-10-23T17:28:01.186Z,9.40
2017-10-23T17:30:33.125Z,14.70
2017-10-23T17:33:02.629Z,8.03
2017-10-23T17:35:33.166Z,13.60
2017-10-23T17:38:02.422Z,8.60
2017-10-23T17:40:31.756Z,8.90
2017-10-23T18:59:03.246Z,13.50
2017-10-23T19:01:35.348Z,22.80
2017-10-23T19:04:04.754Z,19.50
2017-10-23T19:06:34.432Z,13.27
2017-10-23T19:09:03.773Z,14.23
2017-10-23T19:11:34.116Z,16.63
2017-10-23T19:14:03.451Z,14.37
2017-10-23T19:16:33.538Z,14.53
2017-10-23T19:19:03.689Z,15.23
2017-10-23T19:21:33.978Z,15.70
2017-10-23T19:24:03.295Z,14.40
2017-10-23T19:26:33.790Z,23.23
2017-10-23T19:29:03.027Z,28.53
2017-10-23T19:31:32.223Z,22.57
2017-10-23T19:34:01.541Z,17.10
2017-10-23T19:36:30.818Z,17.20
2017-10-23T19:39:00.034Z,24.80
2017-10-23T19:41:29.404Z,17.90
2017-10-23T19:44:00.671Z,20.57
2017-10-23T19:46:30.067Z,20.30
2017-10-23T19:48:59.822Z,18.57
2017-10-23T19:51:29.036Z,23.10
2017-10-23T19:53:58.661Z,32.20
2017-10-23T19:56:29.207Z,27.57
2017-10-23T19:58:58.512Z,28.73
2017-10-23T20:01:28.548Z,25.47
2017-10-23T20:03:58.166Z,27.17
2017-10-23T20:06:28.264Z,32.00
2017-10-23T20:08:58.221Z,23.17
2017-10-23T20:11:27.583Z,24.70
2017-10-23T20:13:56.746Z,25.77
2017-10-23T20:16:25.902Z,20.93
2017-10-23T20:18:56.708Z,22.57
2017-10-23T20:21:30.026Z,24.87
2017-10-23T20:24:01.064Z,17.50
2017-10-23T20:26:30.521Z,21.27
2017-10-23T20:28:59.868Z,18.63
2017-10-23T20:31:29.997Z,21.00
2017-10-23T20:33:59.387Z,19.80
2017-10-23T20:36:28.876Z,18.20
2017-10-23T20:38:59.748Z,19.17
2017-10-23T20:41:28.899Z,17.97
2017-10-23T20:44:00.584Z,21.70
2017-10-23T20:46:29.952Z,18.23
2017-10-23T20:48:59.243Z,23.83
2017-10-23T20:51:28.442Z,16.67
2017-10-23T20:53:58.686Z,18.00
2017-10-23T20:56:27.922Z,16.87
2017-10-23T20:58:58.663Z,14.20
2017-10-23T21:01:28.867Z,22.57
2017-10-23T21:03:58.173Z,30.43
2017-10-23T21:06:27.737Z,19.00
2017-10-23T21:08:57.983Z,16.90
2017-10-23T21:11:27.630Z,17.73
2017-10-23T21:13:57.644Z,20.70
2017-10-23T21:16:28.541Z,22.57
2017-10-23T21:18:59.147Z,21.23
2017-10-23T21:21:28.307Z,23.27
2017-10-23T21:23:57.481Z,19.77
2017-10-23T21:26:29.924Z,25.50
2017-10-23T21:28:59.120Z,18.63
2017-10-23T21:31:28.257Z,17.13
2017-10-23T21:33:57.415Z,17.63
2017-10-23T21:36:28.234Z,18.17
2017-10-23T21:38:59.826Z,16.37
2017-10-23T21:41:28.959Z,21.37
2017-10-23T21:43:58.068Z,22.00
2017-10-23T21:46:45.157Z,17.57
2017-10-23T21:49:14.339Z,19.93
2017-10-23T21:51:43.460Z,17.90
2017-10-23T21:54:12.635Z,19.27
2017-10-23T21:56:41.743Z,22.40
2017-10-23T21:59:10.981Z,14.87
2017-10-23T22:01:41.456Z,17.37
2017-10-23T22:04:10.806Z,14.90
2017-10-23T22:06:39.920Z,20.50
2017-10-23T22:09:10.084Z,15.67
2017-10-23T22:11:39.830Z,18.70
2017-10-23T22:14:10.772Z,14.33
2017-10-23T22:16:42.623Z,15.67
2017-10-23T22:19:11.736Z,14.70
2017-10-23T22:21:40.976Z,13.07
2017-10-23T22:24:11.745Z,18.93
2017-10-23T22:26:40.947Z,18.17
2017-10-23T22:29:11.230Z,17.50
2017-10-23T22:31:41.205Z,16.90
2017-10-23T22:34:10.558Z,21.83
2017-10-23T22:36:39.724Z,18.63
2017-10-23T22:39:10.171Z,19.80
2017-10-23T22:41:39.325Z,22.83
2017-10-23T22:44:08.968Z,17.47
2017-10-23T22:46:39.297Z,18.13
2017-10-23T22:49:09.284Z,21.93
2017-10-23T22:51:39.824Z,20.33
2017-10-23T22:54:09.121Z,22.70
2017-10-23T22:56:38.384Z,20.27
2017-10-23T22:59:07.660Z,20.17
2017-10-23T23:01:39.007Z,32.13
2017-10-23T23:04:08.920Z,22.10
2017-10-23T23:06:38.901Z,22.70
2017-10-23T23:09:09.002Z,21.60
2017-10-23T23:11:38.415Z,16.53
2017-10-23T23:14:07.621Z,17.70
2017-10-23T23:16:37.310Z,19.13
2017-10-23T23:19:06.859Z,20.10
2017-10-23T23:21:36.997Z,16.33
2017-10-23T23:24:06.756Z,29.30
2017-10-23T23:26:36.088Z,24.90
2017-10-23T23:29:05.401Z,19.20
2017-10-23T23:31:34.770Z,25.43
2017-10-23T23:34:04.282Z,19.53
2017-10-23T23:36:33.791Z,33.07
2017-10-23T23:39:03.995Z,24.53
2017-10-23T23:41:34.124Z,18.97
2017-10-23T23:44:03.391Z,24.87
2017-10-23T23:46:33.090Z,23.10
2017-10-23T23:49:02.340Z,30.90
2017-10-23T23:51:31.688Z,31.50
2017-10-23T23:54:03.703Z,22.47
2017-10-23T23:56:32.934Z,26.40
2017-10-23T23:59:02.532Z,29.00
